Time;durP1;ratioP1;P1;durP2;ratioP2;P2;SDS_P1;SDS_P2;PMS_P1;PMS_P2;Temp;Humidity;BMP_temperature;BMP_pressure;BME280_temperature;BME280_humidity;BME280_pressure;Samples;Min_cycle;Max_cycle;Signal;HPM_P1;HPM_P2
2023/07/21 00:00:48;;;;;;;1.27;0.85;;;15.00;99.90;;;;;;10431936;28;20199;-94
2023/07/21 00:05:51;;;;;;;3.38;1.58;;;15.30;99.90;;;;;;10418911;28;20668;-94
2023/07/21 00:10:53;;;;;;;1.10;0.85;;;15.70;99.90;;;;;;10451641;28;20327;-94
2023/07/21 00:15:56;;;;;;;3.15;1.67;;;15.70;99.90;;;;;;10407755;28;20597;-95
2023/07/21 00:21:00;;;;;;;1.50;1.40;;;15.90;99.90;;;;;;10402034;28;20211;-93
2023/07/21 00:26:05;;;;;;;3.15;1.90;;;15.90;99.90;;;;;;10442164;28;20253;-94
2023/07/21 00:31:07;;;;;;;3.53;1.90;;;15.90;99.90;;;;;;10421432;28;20251;-94
2023/07/21 00:36:12;;;;;;;2.40;2.00;;;15.90;99.90;;;;;;10435383;28;20264;-94
2023/07/21 00:41:19;;;;;;;2.50;1.80;;;15.80;99.90;;;;;;10440261;28;20202;-94
2023/07/21 00:46:23;;;;;;;2.17;1.98;;;15.60;99.90;;;;;;10424637;28;20238;-93
2023/07/21 00:51:26;;;;;;;1.20;1.10;;;15.60;99.90;;;;;;10400428;28;20321;-94
2023/07/21 00:56:29;;;;;;;1.60;1.50;;;15.90;99.90;;;;;;10403483;28;20234;-94
2023/07/21 01:01:32;;;;;;;3.90;1.70;;;16.10;99.90;;;;;;10419507;28;20196;-94
2023/07/21 01:06:37;;;;;;;1.33;1.23;;;16.10;99.90;;;;;;10409656;28;20208;-93
2023/07/21 01:11:39;;;;;;;2.65;1.50;;;16.30;99.90;;;;;;10427033;28;20242;-94
2023/07/21 01:16:44;;;;;;;2.95;1.63;;;16.60;99.50;;;;;;10439717;28;20276;-94
2023/07/21 01:21:56;;;;;;;1.92;1.83;;;16.60;98.40;;;;;;10404517;28;20211;-94
2023/07/21 01:26:59;;;;;;;1.30;1.20;;;16.70;97.40;;;;;;10481485;28;20234;-93
2023/07/21 01:32:04;;;;;;;5.40;2.28;;;16.60;97.10;;;;;;10439682;28;20566;-94
2023/07/21 01:37:08;;;;;;;3.05;1.83;;;16.60;96.50;;;;;;10427536;28;20211;-94
2023/07/21 01:42:11;;;;;;;1.63;1.20;;;16.60;95.90;;;;;;10413833;28;20270;-94
2023/07/21 01:47:15;;;;;;;3.90;2.15;;;16.60;96.40;;;;;;10400426;28;20204;-94
2023/07/21 01:52:18;;;;;;;1.80;1.58;;;16.50;95.60;;;;;;10421471;28;20265;-94
2023/07/21 01:57:26;;;;;;;4.47;1.80;;;16.60;95.90;;;;;;10424385;28;20256;-94
2023/07/21 02:02:30;;;;;;;4.20;2.25;;;16.70;95.90;;;;;;10436286;28;20244;-93
2023/07/21 02:07:32;;;;;;;3.83;2.35;;;16.90;95.10;;;;;;10383919;28;20211;-93
2023/07/21 02:12:35;;;;;;;8.82;2.08;;;16.70;94.50;;;;;;10416955;28;20223;-93
2023/07/21 02:17:45;;;;;;;1.63;1.40;;;16.60;95.50;;;;;;10414128;28;20191;-94
2023/07/21 02:22:48;;;;;;;4.18;2.75;;;16.50;94.80;;;;;;10424728;28;20211;-94
2023/07/21 02:27:51;;;;;;;3.92;1.75;;;16.00;95.50;;;;;;10399954;28;20224;-93
2023/07/21 02:32:54;;;;;;;2.88;2.15;;;15.70;97.60;;;;;;10402135;28;20235;-93
2023/07/21 02:38:00;;;;;;;3.75;1.85;;;16.00;97.20;;;;;;10414884;28;20654;-93
2023/07/21 02:43:03;;;;;;;2.35;1.45;;;15.90;96.70;;;;;;10442291;28;20200;-94
2023/07/21 02:48:08;;;;;;;3.80;1.83;;;15.80;96.80;;;;;;10397017;28;20230;-94
2023/07/21 02:53:11;;;;;;;2.47;2.28;;;15.90;96.60;;;;;;10397062;28;20587;-93
2023/07/21 02:58:15;;;;;;;2.33;1.90;;;15.50;96.10;;;;;;10438029;28;20202;-93
2023/07/21 03:03:18;;;;;;;3.03;1.95;;;15.00;97.70;;;;;;10411620;28;20199;-93
2023/07/21 03:08:30;;;;;;;2.22;1.80;;;14.40;98.90;;;;;;10413040;28;20195;-94
2023/07/21 03:13:44;;;;;;;3.55;2.50;;;14.30;99.90;;;;;;10422276;28;20245;-93
2023/07/21 03:18:48;;;;;;;4.00;2.28;;;14.00;99.90;;;;;;10417307;28;20219;-93
2023/07/21 03:23:55;;;;;;;3.22;1.88;;;14.00;99.90;;;;;;10397591;28;20200;-93
2023/07/21 03:29:03;;;;;;;1.65;1.42;;;13.90;99.90;;;;;;10416856;28;20235;-92
2023/07/21 03:34:06;;;;;;;3.08;1.92;;;14.10;99.90;;;;;;10397451;28;20659;-93
2023/07/21 03:39:10;;;;;;;3.67;2.00;;;14.10;99.90;;;;;;10402943;28;20245;-94
2023/07/21 03:44:13;;;;;;;2.45;2.08;;;13.90;99.90;;;;;;10379263;28;20211;-93
2023/07/21 03:49:19;;;;;;;2.78;2.05;;;13.90;99.90;;;;;;10384785;28;20223;-92
2023/07/21 03:54:29;;;;;;;5.10;2.15;;;14.10;99.90;;;;;;10379502;28;20237;-92
2023/07/21 03:59:32;;;;;;;5.63;2.55;;;13.70;99.90;;;;;;10381297;28;20233;-93
2023/07/21 04:04:35;;;;;;;3.28;1.98;;;13.70;99.90;;;;;;10407781;28;20200;-93
2023/07/21 04:09:39;;;;;;;3.88;1.83;;;13.90;99.90;;;;;;10405970;28;20265;-93
2023/07/21 04:14:42;;;;;;;3.17;1.27;;;14.10;99.90;;;;;;10434921;28;20735;-93
2023/07/21 04:19:45;;;;;;;2.17;1.10;;;14.50;99.90;;;;;;10447022;28;20207;-94
2023/07/21 04:24:47;;;;;;;1.33;1.20;;;14.90;99.90;;;;;;10454645;28;20195;-93
2023/07/21 04:29:51;;;;;;;1.23;1.00;;;15.40;99.90;;;;;;10417062;28;20238;-93
2023/07/21 04:34:55;;;;;;;1.85;1.27;;;15.80;99.90;;;;;;10427154;28;20211;-93
2023/07/21 04:39:58;;;;;;;1.35;1.08;;;16.10;99.90;;;;;;10436585;28;20266;-92
2023/07/21 04:45:01;;;;;;;1.58;1.48;;;16.30;99.40;;;;;;10434809;28;20214;-94
2023/07/21 04:50:06;;;;;;;1.42;1.33;;;16.50;97.80;;;;;;10397586;28;20258;-93
2023/07/21 04:55:08;;;;;;;4.53;1.45;;;16.70;97.30;;;;;;10416420;28;20204;-95
2023/07/21 05:00:12;;;;;;;7.38;1.55;;;16.80;95.50;;;;;;10401328;28;20273;-94
2023/07/21 05:05:15;;;;;;;1.30;0.82;;;16.90;95.00;;;;;;10400757;28;20241;-94
2023/07/21 05:10:24;;;;;;;3.35;1.00;;;16.90;94.70;;;;;;10404587;28;20293;-94
2023/07/21 05:15:28;;;;;;;1.70;0.82;;;17.00;93.70;;;;;;10409086;28;20265;-92
2023/07/21 05:20:41;;;;;;;2.15;1.48;;;17.20;94.60;;;;;;10385072;28;20204;-93
2023/07/21 05:26:02;;;;;;;1.20;0.93;;;17.40;94.00;;;;;;10397388;28;20202;-94
2023/07/21 05:31:13;;;;;;;3.70;1.05;;;17.70;93.90;;;;;;10430771;28;20250;-94
2023/07/21 05:36:36;;;;;;;1.08;0.82;;;18.00;92.30;;;;;;10405212;28;20651;-94
2023/07/21 05:41:39;;;;;;;1.67;0.90;;;18.00;91.40;;;;;;10399330;28;20569;-94
2023/07/21 05:46:44;;;;;;;6.28;1.27;;;17.90;91.00;;;;;;10399208;28;20254;-94
2023/07/21 05:51:48;;;;;;;1.10;0.75;;;18.00;92.10;;;;;;10408303;28;20270;-94
2023/07/21 05:57:12;;;;;;;2.15;1.08;;;18.20;91.60;;;;;;10408920;28;20313;-93
2023/07/21 06:02:18;;;;;;;0.43;0.40;;;18.40;90.60;;;;;;10394196;28;20225;-94
2023/07/21 06:07:28;;;;;;;2.67;0.80;;;18.70;91.20;;;;;;10391326;28;20361;-94
2023/07/21 06:12:54;;;;;;;0.95;0.85;;;18.90;89.30;;;;;;10409489;28;20705;-94
2023/07/21 06:18:14;;;;;;;2.58;0.68;;;18.90;85.70;;;;;;10406808;28;20292;-94
2023/07/21 06:23:16;;;;;;;1.63;0.85;;;18.80;82.10;;;;;;10407172;28;20300;-93
2023/07/21 06:28:20;;;;;;;3.45;0.95;;;18.80;86.00;;;;;;10388473;28;20307;-92
2023/07/21 06:33:23;;;;;;;2.15;1.10;;;19.00;84.70;;;;;;10405578;28;20270;-93
2023/07/21 06:38:43;;;;;;;1.55;0.60;;;19.20;84.40;;;;;;10411616;28;20528;-94
2023/07/21 06:43:51;;;;;;;4.03;0.90;;;19.30;81.40;;;;;;10403311;28;20258;-94
2023/07/21 06:49:10;;;;;;;1.15;0.65;;;19.50;80.40;;;;;;10397898;28;20230;-92
2023/07/21 06:54:31;;;;;;;0.88;0.82;;;19.70;78.50;;;;;;10449563;28;20210;-93
2023/07/21 06:59:34;;;;;;;4.20;1.15;;;20.00;80.60;;;;;;10459728;28;20210;-93
2023/07/21 07:04:37;;;;;;;1.35;0.85;;;20.10;73.80;;;;;;10442520;28;20195;-96
2023/07/21 07:09:41;;;;;;;6.93;0.73;;;20.20;75.50;;;;;;10406761;28;20282;-92
2023/07/21 07:14:46;;;;;;;1.15;0.88;;;20.20;73.40;;;;;;10440017;28;20238;-92
2023/07/21 07:19:50;;;;;;;1.13;0.68;;;20.60;69.10;;;;;;10424622;28;20207;-93
2023/07/21 07:24:52;;;;;;;2.33;0.90;;;20.70;60.20;;;;;;10403222;28;20261;-93
2023/07/21 07:29:58;;;;;;;2.70;0.65;;;21.20;57.70;;;;;;10414555;28;20265;-93
2023/07/21 07:35:00;;;;;;;3.28;0.90;;;21.60;54.10;;;;;;10396772;28;20241;-93
2023/07/21 07:40:05;;;;;;;3.53;0.93;;;21.80;50.70;;;;;;10413410;28;20262;-96
2023/07/21 07:45:08;;;;;;;2.80;0.77;;;21.80;50.50;;;;;;10401088;28;20272;-93
2023/07/21 07:50:15;;;;;;;0.93;0.45;;;21.50;45.20;;;;;;10438583;28;20207;-93
2023/07/21 07:55:19;;;;;;;3.40;0.88;;;21.60;45.20;;;;;;10426295;28;20207;-92
2023/07/21 08:00:22;;;;;;;5.93;0.95;;;21.90;46.60;;;;;;10445655;28;20207;-93
2023/07/21 08:05:25;;;;;;;1.38;0.52;;;21.70;43.60;;;;;;10446631;28;20200;-94
2023/07/21 08:10:28;;;;;;;1.65;0.60;;;22.00;42.00;;;;;;10416485;28;20266;-94
2023/07/21 08:15:31;;;;;;;1.05;0.40;;;22.40;40.60;;;;;;10404254;28;20204;-94
2023/07/21 08:20:37;;;;;;;2.13;0.95;;;22.30;37.60;;;;;;10403788;28;20215;-94
2023/07/21 08:25:41;;;;;;;1.88;0.68;;;22.40;34.00;;;;;;10422466;28;20560;-93
2023/07/21 08:30:44;;;;;;;3.50;0.82;;;22.50;38.20;;;;;;10440343;28;20239;-93
2023/07/21 08:35:59;;;;;;;1.80;0.73;;;22.90;36.20;;;;;;10428026;28;20203;-93
2023/07/21 08:41:08;;;;;;;9.90;0.80;;;23.40;34.50;;;;;;10413919;28;20266;-93
2023/07/21 08:46:11;;;;;;;0.90;0.70;;;23.40;33.70;;;;;;10449238;28;20203;-93
2023/07/21 08:51:14;;;;;;;1.75;0.77;;;23.20;32.80;;;;;;10414038;28;20684;-93
2023/07/21 08:56:17;;;;;;;1.13;0.70;;;23.50;33.00;;;;;;10417010;28;20285;-93
2023/07/21 09:01:25;;;;;;;2.28;0.57;;;23.70;30.00;;;;;;10429236;28;20254;-96
2023/07/21 09:06:29;;;;;;;1.30;0.68;;;23.80;31.20;;;;;;10412575;28;20211;-95
2023/07/21 09:11:35;;;;;;;2.70;0.60;;;24.00;30.10;;;;;;10413100;28;20231;-96
2023/07/21 09:16:42;;;;;;;2.40;0.65;;;24.20;28.20;;;;;;10430305;28;20257;-94
2023/07/21 09:21:54;;;;;;;0.93;0.50;;;24.20;26.40;;;;;;10431367;28;20612;-92
2023/07/21 09:27:23;;;;;;;1.13;0.50;;;24.30;28.30;;;;;;10428779;28;20245;-93
2023/07/21 09:32:26;;;;;;;1.02;0.60;;;24.40;26.30;;;;;;10487611;28;20260;-94
2023/07/21 09:37:31;;;;;;;0.65;0.50;;;24.50;24.60;;;;;;10448653;28;20206;-95
2023/07/21 09:42:33;;;;;;;1.67;0.80;;;24.70;25.60;;;;;;10438377;28;20203;-96
2023/07/21 09:47:38;;;;;;;3.28;0.50;;;24.70;25.20;;;;;;10385000;28;20207;-95
2023/07/21 09:52:48;;;;;;;2.10;1.08;;;24.80;26.30;;;;;;10384884;28;20219;-92
2023/07/21 09:57:51;;;;;;;0.98;0.57;;;24.80;22.90;;;;;;10402984;28;20233;-93
2023/07/21 10:02:54;;;;;;;1.02;0.70;;;24.90;21.80;;;;;;10454074;28;20233;-92
2023/07/21 10:08:00;;;;;;;2.10;0.80;;;24.70;17.90;;;;;;10433955;28;20206;-93
2023/07/21 10:13:07;;;;;;;0.68;0.60;;;24.90;21.40;;;;;;10401196;28;20223;-94
2023/07/21 10:18:11;;;;;;;4.10;0.85;;;24.80;21.70;;;;;;10426018;28;20203;-95
2023/07/21 10:23:16;;;;;;;7.55;1.27;;;24.70;20.80;;;;;;10401177;28;20204;-94
2023/07/21 10:28:42;;;;;;;1.63;0.88;;;24.70;20.60;;;;;;10432501;28;20242;-96
2023/07/21 10:34:16;;;;;;;1.65;0.70;;;24.90;20.90;;;;;;10426164;28;20288;-96
2023/07/21 10:39:27;;;;;;;0.60;0.57;;;25.10;21.10;;;;;;10423626;28;20979;-95
2023/07/21 10:44:39;;;;;;;1.05;0.60;;;25.20;18.60;;;;;;10430703;28;20211;-96
2023/07/21 10:49:43;;;;;;;1.45;0.57;;;25.20;20.20;;;;;;10413097;28;20581;-96
2023/07/21 10:54:47;;;;;;;2.45;0.70;;;25.40;20.60;;;;;;10440950;28;20223;-96
2023/07/21 10:59:54;;;;;;;1.60;1.15;;;25.50;18.50;;;;;;10412250;28;20609;-95
2023/07/21 11:05:03;;;;;;;1.08;0.60;;;25.50;19.40;;;;;;10405715;28;20601;-96
2023/07/21 11:10:07;;;;;;;1.38;0.52;;;25.70;19.30;;;;;;10417430;28;20200;-95
2023/07/21 11:15:11;;;;;;;1.25;0.80;;;25.60;18.60;;;;;;10415856;28;20235;-95
2023/07/21 11:20:14;;;;;;;0.85;0.77;;;25.60;18.80;;;;;;10415855;28;20273;-96
2023/07/21 11:25:17;;;;;;;1.77;0.70;;;25.70;19.10;;;;;;10413158;28;20638;-93
2023/07/21 11:30:23;;;;;;;1.63;0.82;;;25.80;18.30;;;;;;10450656;28;20234;-93
2023/07/21 11:35:32;;;;;;;1.45;1.10;;;25.90;17.60;;;;;;10420416;28;20224;-94
2023/07/21 11:40:37;;;;;;;1.20;1.02;;;25.80;15.80;;;;;;10428966;28;20207;-96
2023/07/21 11:45:41;;;;;;;1.70;0.93;;;25.80;15.50;;;;;;10407530;28;20614;-92
2023/07/21 11:50:52;;;;;;;1.73;0.60;;;25.80;18.30;;;;;;10393307;28;20671;-92
2023/07/21 11:55:55;;;;;;;1.20;0.90;;;25.90;16.70;;;;;;10407283;28;20230;-92
2023/07/21 12:00:58;;;;;;;1.35;0.63;;;26.00;15.70;;;;;;10406950;28;20203;-93
2023/07/21 12:06:04;;;;;;;1.35;0.80;;;26.00;17.40;;;;;;10435453;28;20187;-92
2023/07/21 12:11:26;;;;;;;1.27;0.68;;;25.90;18.20;;;;;;10438360;28;20216;-94
2023/07/21 12:22:28;;;;;;;1.38;0.55;;;25.80;16.80;;;;;;10425557;28;20191;-92
2023/07/21 12:27:31;;;;;;;1.00;0.68;;;25.90;15.40;;;;;;10441912;28;20667;-92
2023/07/21 12:32:34;;;;;;;0.95;0.77;;;26.00;16.90;;;;;;10404532;28;20239;-91
2023/07/21 12:37:39;;;;;;;0.70;0.50;;;25.90;16.30;;;;;;10405870;28;20623;-92
2023/07/21 12:42:43;;;;;;;0.70;0.70;;;25.90;16.10;;;;;;10424769;28;20207;-93
2023/07/21 12:48:27;;;;;;;1.30;0.98;;;25.90;18.00;;;;;;10417164;28;20203;-95
2023/07/21 12:53:34;;;;;;;1.10;0.85;;;25.80;15.30;;;;;;10429366;28;20214;-93
2023/07/21 12:59:18;;;;;;;1.08;0.77;;;25.90;14.60;;;;;;10447309;28;20184;-94
2023/07/21 13:04:21;;;;;;;2.05;0.80;;;26.00;16.90;;;;;;10287125;28;20357;-92
2023/07/21 13:09:24;;;;;;;0.90;0.77;;;25.90;10.00;;;;;;10280110;28;20213;-92
2023/07/21 13:14:27;;;;;;;0.52;0.52;;;25.90;14.80;;;;;;10286724;28;20230;-93
2023/07/21 13:25:17;;;;;;;0.75;0.70;;;26.00;17.30;;;;;;10335914;28;20205;-93
2023/07/21 13:30:20;;;;;;;1.00;0.52;;;25.90;17.70;;;;;;10316603;28;20241;-91
2023/07/21 13:35:23;;;;;;;0.73;0.70;;;25.90;17.00;;;;;;10301379;28;20687;-94
2023/07/21 13:40:28;;;;;;;1.27;1.10;;;26.00;16.20;;;;;;10342099;28;20226;-91
2023/07/21 13:45:30;;;;;;;2.80;0.73;;;26.10;17.00;;;;;;10497200;22;20603;-86
2023/07/21 13:50:36;;;;;;;1.08;0.60;;;26.20;15.00;;;;;;10535461;28;20290;-86
2023/07/21 13:55:38;;;;;;;0.98;0.70;;;26.20;13.00;;;;;;10533559;28;20749;-86
2023/07/21 14:00:41;;;;;;;2.17;0.85;;;26.30;12.70;;;;;;10534635;28;20299;-86
2023/07/21 14:05:44;;;;;;;3.00;1.10;;;26.10;12.60;;;;;;10533040;28;20210;-86
2023/07/21 14:10:47;;;;;;;0.60;0.60;;;26.00;11.40;;;;;;10534169;28;20624;-85
2023/07/21 14:15:49;;;;;;;1.30;0.80;;;25.80;11.10;;;;;;10517072;28;20669;-86
2023/07/21 14:20:52;;;;;;;3.47;1.45;;;25.80;11.90;;;;;;10534934;28;20261;-85
2023/07/21 14:25:58;;;;;;;0.80;0.80;;;25.70;13.50;;;;;;10534983;28;20279;-85
2023/07/21 14:31:00;;;;;;;2.22;1.27;;;25.60;11.00;;;;;;10534138;28;20251;-85
2023/07/21 14:36:03;;;;;;;7.20;1.35;;;25.50;12.40;;;;;;10499020;28;20546;-85
2023/07/21 14:41:06;;;;;;;24.67;2.05;;;25.40;13.50;;;;;;10533556;28;20284;-85
2023/07/21 14:46:09;;;;;;;3.25;1.20;;;25.20;12.50;;;;;;10533055;28;20642;-85
2023/07/21 14:51:11;;;;;;;2.92;0.82;;;25.00;14.30;;;;;;10533101;28;20229;-86
2023/07/21 14:56:14;;;;;;;2.85;0.88;;;24.90;14.80;;;;;;10532397;28;20300;-86
2023/07/21 15:01:17;;;;;;;1.58;0.80;;;24.80;14.20;;;;;;10472695;28;20260;-86
2023/07/21 15:06:20;;;;;;;2.83;0.93;;;24.80;13.30;;;;;;10489356;28;20569;-86
2023/07/21 15:11:23;;;;;;;1.10;0.80;;;24.80;11.90;;;;;;10473019;28;20255;-87
2023/07/21 15:16:25;;;;;;;1.10;0.93;;;25.00;12.90;;;;;;10490391;28;20597;-86
2023/07/21 15:21:28;;;;;;;1.95;1.05;;;25.10;12.80;;;;;;10471826;28;20234;-86
2023/07/21 15:26:31;;;;;;;1.30;1.08;;;25.10;11.80;;;;;;10490259;28;20586;-86
2023/07/21 15:31:34;;;;;;;1.80;0.93;;;25.00;12.70;;;;;;10489907;28;20275;-86
2023/07/21 15:36:37;;;;;;;1.08;0.98;;;24.80;14.40;;;;;;10489432;28;20282;-87
2023/07/21 15:41:40;;;;;;;2.80;0.70;;;24.90;15.70;;;;;;10490121;28;20260;-86
2023/07/21 15:46:42;;;;;;;1.08;0.65;;;25.00;14.90;;;;;;10489254;28;20710;-86
2023/07/21 15:51:45;;;;;;;1.52;1.08;;;25.00;14.10;;;;;;10489360;28;20250;-86
2023/07/21 15:56:47;;;;;;;2.05;0.90;;;24.90;16.30;;;;;;10489609;28;20226;-86
2023/07/21 16:01:51;;;;;;;2.03;0.75;;;24.70;13.50;;;;;;10489755;28;20230;-86
2023/07/21 16:06:54;;;;;;;1.95;0.90;;;24.60;15.20;;;;;;10489303;28;20283;-86
2023/07/21 16:11:56;;;;;;;2.65;1.20;;;24.60;14.50;;;;;;10482186;28;20682;-82
2023/07/21 16:16:59;;;;;;;4.13;1.08;;;24.60;15.50;;;;;;10479359;28;20230;-82
2023/07/21 16:22:02;;;;;;;4.55;1.10;;;24.70;15.70;;;;;;10509610;28;20237;-82
2023/07/21 16:27:05;;;;;;;2.25;0.82;;;24.70;16.50;;;;;;10534205;28;20245;-83
2023/07/21 16:32:07;;;;;;;7.47;0.93;;;24.50;14.10;;;;;;10509280;28;20257;-84
2023/07/21 16:37:10;;;;;;;1.63;0.93;;;24.50;15.70;;;;;;10504371;28;20748;-83
2023/07/21 16:42:13;;;;;;;3.45;1.10;;;24.50;16.10;;;;;;10521349;28;20692;-84
2023/07/21 16:47:15;;;;;;;1.05;0.90;;;24.40;15.00;;;;;;10518811;28;20269;-83
2023/07/21 16:52:19;;;;;;;6.07;1.00;;;24.10;15.70;;;;;;10536958;28;20673;-83
2023/07/21 16:57:23;;;;;;;3.95;1.33;;;23.80;15.30;;;;;;10531053;28;20256;-82
2023/07/21 17:02:26;;;;;;;12.93;2.35;;;23.60;16.10;;;;;;10522443;28;20222;-83
2023/07/21 17:07:29;;;;;;;2.65;1.50;;;23.30;16.80;;;;;;10495551;28;20756;-87
2023/07/21 17:12:31;;;;;;;4.95;1.42;;;23.10;17.70;;;;;;10534020;28;20253;-82
2023/07/21 17:17:34;;;;;;;5.07;1.35;;;22.90;17.90;;;;;;10521511;28;20233;-82
2023/07/21 17:22:48;;;;;;;9.93;2.45;;;22.60;20.50;;;;;;10493291;28;20238;-82
2023/07/21 17:27:52;;;;;;;4.88;1.08;;;22.40;21.00;;;;;;10529149;28;20273;-82
2023/07/21 17:32:54;;;;;;;12.90;1.88;;;22.40;23.30;;;;;;10497531;28;20245;-82
2023/07/21 17:37:57;;;;;;;5.05;1.27;;;22.50;23.30;;;;;;10511326;28;20613;-82
2023/07/21 17:43:01;;;;;;;19.48;2.42;;;22.50;23.30;;;;;;10529107;28;20739;-82
2023/07/21 17:48:05;;;;;;;4.50;1.25;;;22.20;22.50;;;;;;10503759;28;20234;-83
2023/07/21 17:53:09;;;;;;;3.63;1.20;;;21.90;23.10;;;;;;10486285;28;20645;-83
2023/07/21 17:58:11;;;;;;;5.83;1.17;;;21.70;24.10;;;;;;10173365;28;10001166;-83
2023/07/21 18:03:14;;;;;;;5.82;1.40;;;21.60;26.60;;;;;;10510056;28;20232;-83
2023/07/21 18:08:17;;;;;;;11.85;1.63;;;21.40;26.20;;;;;;10496054;28;20245;-82
2023/07/21 18:13:25;;;;;;;10.45;1.77;;;21.30;28.00;;;;;;10508230;28;20320;-83
2023/07/21 18:18:29;;;;;;;7.93;1.70;;;21.20;27.40;;;;;;10500864;28;20221;-82
2023/07/21 18:23:35;;;;;;;7.28;1.60;;;21.10;28.90;;;;;;10504566;28;20291;-83
2023/07/21 18:28:38;;;;;;;10.80;3.50;;;20.90;29.40;;;;;;10492726;28;20310;-82
2023/07/21 18:33:40;;;;;;;4.07;2.63;;;20.80;30.00;;;;;;10506265;28;20704;-82
2023/07/21 18:38:45;;;;;;;4.28;1.90;;;20.70;29.40;;;;;;10493386;28;20225;-82
2023/07/21 18:43:47;;;;;;;4.03;2.15;;;20.60;32.90;;;;;;10526341;28;20257;-82
2023/07/21 18:48:52;;;;;;;7.57;2.10;;;20.50;34.20;;;;;;10527272;28;20283;-82
2023/07/21 18:53:57;;;;;;;4.78;2.28;;;20.30;36.80;;;;;;10508861;28;20265;-82
2023/07/21 18:59:00;;;;;;;2.70;1.67;;;20.10;42.80;;;;;;10492335;28;20238;-83
2023/07/21 19:04:02;;;;;;;4.28;2.20;;;20.00;45.10;;;;;;10490572;28;20593;-82
2023/07/21 19:09:05;;;;;;;10.13;2.25;;;19.90;49.60;;;;;;10484269;28;20283;-83
2023/07/21 19:14:07;;;;;;;11.63;2.72;;;19.80;56.20;;;;;;10503227;28;20301;-82
2023/07/21 19:19:10;;;;;;;4.88;1.77;;;19.80;61.30;;;;;;10511456;28;20230;-82
2023/07/21 19:24:13;;;;;;;3.88;2.58;;;19.90;62.90;;;;;;10492222;28;20283;-82
2023/07/21 19:29:15;;;;;;;6.30;1.60;;;19.70;63.70;;;;;;10509491;28;20237;-83
2023/07/21 19:34:18;;;;;;;3.10;1.92;;;19.80;62.60;;;;;;10509764;28;20326;-82
2023/07/21 19:39:20;;;;;;;1.98;1.52;;;19.90;62.00;;;;;;10515293;28;21005;-82
2023/07/21 19:44:23;;;;;;;1.58;0.88;;;20.10;62.10;;;;;;10509088;28;20318;-83
2023/07/21 19:49:26;;;;;;;1.65;1.05;;;20.20;62.50;;;;;;10509412;28;20229;-82
2023/07/21 19:54:28;;;;;;;2.40;1.85;;;20.30;62.10;;;;;;10530523;28;20822;-83
2023/07/21 19:59:31;;;;;;;2.03;1.50;;;20.40;58.70;;;;;;10509508;28;20636;-84
2023/07/21 20:04:33;;;;;;;8.82;2.50;;;20.50;55.60;;;;;;10494662;28;20698;-82
2023/07/21 20:09:36;;;;;;;6.57;2.20;;;20.50;51.70;;;;;;10476466;28;20287;-83
2023/07/21 20:14:38;;;;;;;1.98;1.77;;;20.40;48.70;;;;;;10510155;28;20252;-83
2023/07/21 20:19:41;;;;;;;7.80;2.30;;;20.50;51.30;;;;;;10534357;28;20230;-81
2023/07/21 20:24:43;;;;;;;3.75;0.90;;;20.60;50.90;;;;;;10531605;28;20296;-82
2023/07/21 20:29:46;;;;;;;3.47;1.70;;;20.60;50.00;;;;;;10533064;28;20284;-82
2023/07/21 20:34:49;;;;;;;5.78;1.67;;;20.60;48.30;;;;;;10531882;28;20744;-82
2023/07/21 20:39:51;;;;;;;5.60;2.05;;;20.40;48.60;;;;;;10505964;28;20226;-82
2023/07/21 20:44:54;;;;;;;3.78;1.33;;;20.10;55.20;;;;;;10491190;28;20662;-82
2023/07/21 20:49:57;;;;;;;2.28;1.70;;;19.80;64.10;;;;;;10502231;28;20694;-82
2023/07/21 20:54:59;;;;;;;1.80;1.40;;;19.40;65.70;;;;;;10491109;28;20316;-81
2023/07/21 21:00:02;;;;;;;1.08;0.88;;;19.20;69.70;;;;;;10516810;28;20813;-82
2023/07/21 21:05:05;;;;;;;2.15;1.48;;;19.60;65.60;;;;;;10499087;28;20275;-82
2023/07/21 21:10:09;;;;;;;1.00;0.90;;;19.80;60.80;;;;;;10511175;28;20314;-82
2023/07/21 21:15:12;;;;;;;2.47;1.65;;;19.80;60.90;;;;;;10536033;28;20624;-83
2023/07/21 21:20:14;;;;;;;1.65;1.10;;;19.80;60.30;;;;;;10530020;28;20298;-85
2023/07/21 21:25:17;;;;;;;1.95;0.85;;;19.80;56.40;;;;;;10518318;28;20661;-83
2023/07/21 21:30:19;;;;;;;3.10;1.48;;;19.80;58.50;;;;;;10505379;28;20695;-83
2023/07/21 21:35:22;;;;;;;1.23;1.00;;;19.80;58.90;;;;;;10528079;28;20252;-83
2023/07/21 21:40:25;;;;;;;1.67;1.00;;;19.80;57.70;;;;;;10534395;28;20225;-83
2023/07/21 21:45:33;;;;;;;2.90;1.20;;;19.70;55.10;;;;;;10517517;28;20318;-83
2023/07/21 21:50:36;;;;;;;3.30;0.93;;;19.70;56.20;;;;;;10532065;28;20365;-82
2023/07/21 21:55:38;;;;;;;2.15;0.90;;;19.60;55.90;;;;;;10510229;28;20249;-83
2023/07/21 22:00:42;;;;;;;1.10;1.00;;;19.60;58.20;;;;;;10527581;28;20259;-83
2023/07/21 22:05:46;;;;;;;2.33;1.08;;;19.60;58.80;;;;;;10511570;28;20622;-82
2023/07/21 22:10:48;;;;;;;3.75;1.17;;;19.60;58.50;;;;;;10513486;28;20224;-82
2023/07/21 22:15:51;;;;;;;3.03;1.20;;;19.60;59.00;;;;;;10504405;28;20327;-82
2023/07/21 22:20:54;;;;;;;0.98;0.85;;;19.60;56.60;;;;;;10519685;28;20292;-83
2023/07/21 22:26:05;;;;;;;1.67;1.10;;;19.40;58.30;;;;;;10508272;28;20691;-83
2023/07/21 22:31:16;;;;;;;1.75;1.25;;;19.10;58.40;;;;;;10491797;28;20234;-83
2023/07/21 22:36:20;;;;;;;2.45;1.65;;;18.90;61.10;;;;;;10509441;28;20314;-83
2023/07/21 22:41:25;;;;;;;1.33;0.80;;;18.70;62.00;;;;;;10528329;28;20237;-83
2023/07/21 22:46:28;;;;;;;1.60;1.00;;;18.60;64.10;;;;;;10520006;28;20265;-83
2023/07/21 22:51:32;;;;;;;2.15;1.10;;;18.40;65.00;;;;;;10522612;28;20295;-83
2023/07/21 22:56:34;;;;;;;2.03;1.35;;;18.40;66.80;;;;;;10473393;28;20629;-83
2023/07/21 23:01:37;;;;;;;1.60;1.38;;;18.40;68.30;;;;;;10502788;28;20221;-83
2023/07/21 23:06:41;;;;;;;3.05;1.05;;;18.10;70.90;;;;;;10499431;28;20241;-83
2023/07/21 23:11:44;;;;;;;1.33;1.23;;;17.80;75.20;;;;;;10477414;28;20329;-83
2023/07/21 23:16:47;;;;;;;1.33;1.02;;;17.80;79.30;;;;;;10499421;28;20253;-83
2023/07/21 23:21:50;;;;;;;1.50;0.93;;;17.90;80.50;;;;;;10516576;28;20245;-83
2023/07/21 23:26:52;;;;;;;1.70;1.33;;;17.80;84.40;;;;;;10508875;28;20577;-83
2023/07/21 23:31:55;;;;;;;1.50;1.05;;;17.90;89.20;;;;;;10520546;28;20233;-83
2023/07/21 23:36:59;;;;;;;1.92;0.98;;;17.60;93.20;;;;;;10497818;28;20335;-83
2023/07/21 23:42:02;;;;;;;1.20;1.10;;;17.40;93.30;;;;;;10521967;28;20220;-83
2023/07/21 23:47:04;;;;;;;0.88;0.85;;;17.40;95.30;;;;;;10516596;28;20269;-83
2023/07/21 23:52:07;;;;;;;1.48;1.13;;;17.70;94.20;;;;;;10514120;28;20624;-83
2023/07/21 23:57:10;;;;;;;1.60;1.05;;;18.00;93.50;;;;;;10512269;28;20311;-83
